createdAt,value
2022-10-04T00:01:17.287Z,87.07
2022-10-04T00:04:01.150Z,87.27
2022-10-04T00:06:28.080Z,86.89
2022-10-04T00:09:05.467Z,86.71
2022-10-04T00:11:37.540Z,86.59
2022-10-04T00:14:14.425Z,86.65
2022-10-04T00:16:43.992Z,86.80
2022-10-04T00:19:19.671Z,87.02
2022-10-04T00:21:58.177Z,86.86
2022-10-04T00:24:26.261Z,86.69
2022-10-04T00:26:52.837Z,86.82
2022-10-04T00:29:37.439Z,87.03
2022-10-04T00:32:09.821Z,86.85
2022-10-04T00:34:36.360Z,86.75
2022-10-04T00:37:13.105Z,86.63
2022-10-04T00:39:45.592Z,86.30
2022-10-04T00:42:27.109Z,85.78
2022-10-04T00:45:07.623Z,85.78
2022-10-04T00:47:46.053Z,85.64
2022-10-04T00:50:26.100Z,85.20
2022-10-04T00:52:56.884Z,85.27
2022-10-04T00:55:33.466Z,84.95
2022-10-04T00:58:02.985Z,84.57
2022-10-04T01:00:33.324Z,84.78
2022-10-04T01:03:14.002Z,84.65
2022-10-04T01:05:49.994Z,85.00
2022-10-04T01:08:24.556Z,84.89
2022-10-04T01:10:56.782Z,85.06
2022-10-04T01:13:31.112Z,85.05
2022-10-04T01:16:03.776Z,85.21
2022-10-04T01:18:33.497Z,85.46
2022-10-04T01:21:09.141Z,85.50
2022-10-04T01:23:49.480Z,85.59
2022-10-04T01:26:34.439Z,86.24
2022-10-04T01:29:08.056Z,86.08
2022-10-04T01:31:38.107Z,85.99
2022-10-04T01:34:06.334Z,85.86
2022-10-04T01:36:34.309Z,85.68
2022-10-04T01:39:01.279Z,85.42
2022-10-04T01:41:40.571Z,85.36
2022-10-04T01:44:11.229Z,85.44
2022-10-04T01:46:40.133Z,85.44
2022-10-04T01:49:12.593Z,85.73
2022-10-04T01:51:49.841Z,85.97
2022-10-04T01:54:21.496Z,86.50
2022-10-04T01:57:00.451Z,86.64
2022-10-04T01:59:33.369Z,86.53
2022-10-04T02:02:06.535Z,86.31
2022-10-04T02:04:38.660Z,86.12
2022-10-04T02:07:13.566Z,85.83
2022-10-04T02:09:45.233Z,85.38
2022-10-04T02:12:16.933Z,85.42
2022-10-04T02:14:52.580Z,85.43
2022-10-04T02:17:27.718Z,85.45
2022-10-04T02:19:55.145Z,85.97
2022-10-04T02:22:23.650Z,85.88
2022-10-04T02:24:50.618Z,85.85
2022-10-04T02:27:17.494Z,86.10
2022-10-04T02:29:44.207Z,86.47
2022-10-04T02:32:32.406Z,86.79
2022-10-04T02:34:59.174Z,86.83
2022-10-04T02:37:28.138Z,87.05
2022-10-04T02:40:40.074Z,86.98
2022-10-04T02:43:15.076Z,87.03
2022-10-04T02:46:12.717Z,87.26
2022-10-04T02:48:43.982Z,86.63
2022-10-04T02:51:19.817Z,86.70
2022-10-04T02:53:52.970Z,86.74
2022-10-04T02:56:20.836Z,86.95
2022-10-04T02:58:47.558Z,87.33
2022-10-04T03:01:26.672Z,87.79
2022-10-04T03:03:55.733Z,87.91
2022-10-04T03:06:28.185Z,88.23
2022-10-04T03:09:05.974Z,88.30
2022-10-04T03:11:40.802Z,88.53
2022-10-04T03:14:14.849Z,88.62
2022-10-04T03:16:44.613Z,88.69
2022-10-04T03:19:13.673Z,88.46
2022-10-04T03:21:43.415Z,88.42
2022-10-04T03:24:16.838Z,88.22
2022-10-04T03:26:46.871Z,88.23
2022-10-04T03:29:16.335Z,88.26
2022-10-04T03:31:46.567Z,87.82
2022-10-04T03:34:17.283Z,88.07
2022-10-04T03:36:45.760Z,88.03
2022-10-04T03:39:18.344Z,87.86
2022-10-04T03:41:45.091Z,87.90
2022-10-04T03:44:16.922Z,87.74
2022-10-04T03:46:45.330Z,87.87
2022-10-04T03:49:17.895Z,87.80
2022-10-04T03:51:49.093Z,87.83
2022-10-04T03:54:23.573Z,87.95
2022-10-04T03:56:52.961Z,87.96
2022-10-04T03:59:20.056Z,87.65
2022-10-04T04:02:03.611Z,87.49
2022-10-04T04:04:42.101Z,87.66
2022-10-04T04:07:18.807Z,87.35
2022-10-04T04:09:52.437Z,87.15
2022-10-04T04:12:39.327Z,87.24
2022-10-04T04:15:11.946Z,87.29
2022-10-04T04:17:41.688Z,87.10
2022-10-04T04:20:41.221Z,87.53
2022-10-04T04:23:11.111Z,87.88
2022-10-04T04:25:42.000Z,87.73
2022-10-04T04:28:20.381Z,87.62
2022-10-04T04:30:50.100Z,87.62
2022-10-04T04:33:41.495Z,87.22
2022-10-04T04:36:11.968Z,86.79
2022-10-04T04:38:58.572Z,86.70
2022-10-04T04:41:27.989Z,86.45
2022-10-04T04:43:54.997Z,86.18
2022-10-04T04:46:27.537Z,86.08
2022-10-04T04:49:04.314Z,86.12
2022-10-04T04:51:33.052Z,85.89
2022-10-04T04:54:03.530Z,85.89
2022-10-04T04:56:30.760Z,85.60
2022-10-04T04:59:01.826Z,85.60
2022-10-04T05:01:44.818Z,85.66
2022-10-04T05:04:12.638Z,85.17
2022-10-04T05:06:45.207Z,85.15
2022-10-04T05:09:25.992Z,84.80
2022-10-04T05:11:56.781Z,84.52
2022-10-04T05:14:23.427Z,84.41
2022-10-04T05:16:52.415Z,84.18
2022-10-04T05:19:24.901Z,84.28
2022-10-04T05:21:56.731Z,84.22
2022-10-04T05:24:28.011Z,84.38
2022-10-04T05:26:58.636Z,84.66
2022-10-04T05:29:28.505Z,84.64
2022-10-04T05:32:45.396Z,84.73
2022-10-04T05:35:17.174Z,84.59
2022-10-04T05:38:00.625Z,84.88
2022-10-04T05:40:39.497Z,85.37
2022-10-04T05:43:29.129Z,85.71
2022-10-04T05:46:18.580Z,85.82
2022-10-04T05:48:53.000Z,85.87
2022-10-04T05:51:23.073Z,85.62
2022-10-04T05:53:50.520Z,85.35
2022-10-04T05:56:42.349Z,85.38
2022-10-04T05:59:30.557Z,85.30
2022-10-04T06:02:12.237Z,85.52
2022-10-04T06:05:12.201Z,85.40
2022-10-04T06:07:59.692Z,85.32
2022-10-04T06:10:32.200Z,85.45
2022-10-04T06:13:36.725Z,85.29
2022-10-04T06:16:06.306Z,85.50
2022-10-04T06:19:06.854Z,85.49
2022-10-04T06:21:56.947Z,85.35
2022-10-04T06:24:27.904Z,85.10
2022-10-04T06:27:19.225Z,85.12
2022-10-04T06:30:03.521Z,85.08
2022-10-04T06:32:49.145Z,85.30
2022-10-04T06:35:42.541Z,85.42
2022-10-04T06:38:23.378Z,85.20
2022-10-04T06:41:46.837Z,85.15
2022-10-04T06:44:37.109Z,85.13
2022-10-04T06:47:11.312Z,85.18
2022-10-04T06:50:12.245Z,85.18
2022-10-04T06:52:58.552Z,85.40
2022-10-04T06:55:34.184Z,85.74
2022-10-04T06:58:18.377Z,85.87
2022-10-04T07:00:54.300Z,85.93
2022-10-04T07:03:27.877Z,85.89
2022-10-04T07:06:04.887Z,86.52
2022-10-04T07:08:59.585Z,88.01
2022-10-04T07:11:32.754Z,87.94
2022-10-04T07:14:02.912Z,88.38
2022-10-04T07:16:56.014Z,86.94
2022-10-04T07:19:39.975Z,86.96
2022-10-04T07:22:06.561Z,86.55
2022-10-04T07:24:51.347Z,86.29
2022-10-04T07:27:24.201Z,85.68
2022-10-04T07:30:06.085Z,85.88
2022-10-04T07:32:38.833Z,86.35
2022-10-04T07:35:14.410Z,86.11
2022-10-04T07:37:58.636Z,84.73
2022-10-04T07:40:31.460Z,84.71
2022-10-04T07:43:04.278Z,83.85
2022-10-04T07:45:34.473Z,82.72
2022-10-04T07:48:23.262Z,82.67
2022-10-04T07:51:09.440Z,82.41
2022-10-04T07:54:14.780Z,82.83
2022-10-04T07:56:55.712Z,82.22
2022-10-04T07:59:37.297Z,80.79
2022-10-04T08:02:31.834Z,81.33
2022-10-04T08:05:20.590Z,82.96
2022-10-04T08:07:56.667Z,84.63
2022-10-04T08:10:23.977Z,84.87
2022-10-04T08:12:53.834Z,84.69
2022-10-04T08:15:37.426Z,84.32
2022-10-04T08:18:19.639Z,82.82
2022-10-04T08:21:04.385Z,81.49
2022-10-04T08:23:40.983Z,81.33
2022-10-04T08:26:15.947Z,81.41
2022-10-04T08:29:18.125Z,80.22
2022-10-04T08:32:23.264Z,80.31
2022-10-04T08:35:16.452Z,79.29
2022-10-04T08:38:06.650Z,77.87
2022-10-04T08:40:50.004Z,80.45
2022-10-04T08:43:56.766Z,80.16
2022-10-04T08:46:40.960Z,80.69
2022-10-04T08:50:05.337Z,80.64
2022-10-04T08:53:04.584Z,80.41
2022-10-04T08:55:48.122Z,80.06
2022-10-04T08:58:48.175Z,81.56
2022-10-04T09:01:54.600Z,81.06
2022-10-04T09:04:50.921Z,80.24
2022-10-04T09:07:46.381Z,79.47
2022-10-04T09:10:36.541Z,80.08
2022-10-04T09:13:31.289Z,81.01
2022-10-04T09:16:47.392Z,81.44
2022-10-04T09:19:53.533Z,80.42
2022-10-04T09:23:05.557Z,78.35
2022-10-04T09:25:59.779Z,78.47
2022-10-04T09:28:45.064Z,79.13
2022-10-04T09:32:00.943Z,77.55
2022-10-04T09:35:06.467Z,76.37
2022-10-04T09:37:36.465Z,78.01
2022-10-04T09:40:27.465Z,79.09
2022-10-04T09:43:27.472Z,79.57
2022-10-04T09:46:22.072Z,79.64
2022-10-04T09:49:17.900Z,79.15
2022-10-04T09:51:56.525Z,79.42
2022-10-04T09:54:51.661Z,78.07
2022-10-04T09:57:29.726Z,78.67
2022-10-04T10:00:11.404Z,79.13
2022-10-04T10:03:13.412Z,78.54
2022-10-04T10:06:08.169Z,78.31
2022-10-04T10:08:49.698Z,78.86
2022-10-04T10:11:56.638Z,79.33
2022-10-04T10:15:08.270Z,78.37
2022-10-04T10:18:00.892Z,78.01
2022-10-04T10:20:28.492Z,79.13
2022-10-04T10:23:01.198Z,79.47
2022-10-04T10:25:56.244Z,79.52
2022-10-04T10:28:40.612Z,78.22
2022-10-04T10:31:51.245Z,76.36
2022-10-04T10:34:35.821Z,75.61
2022-10-04T10:37:40.985Z,75.01
2022-10-04T10:40:16.907Z,76.12
2022-10-04T10:42:59.800Z,77.57
2022-10-04T10:45:43.813Z,77.92
2022-10-04T10:48:35.331Z,76.30
2022-10-04T10:51:34.420Z,77.57
2022-10-04T10:54:34.255Z,76.93
2022-10-04T10:57:18.649Z,75.69
2022-10-04T10:59:57.219Z,74.11
2022-10-04T11:02:48.766Z,74.24
2022-10-04T11:05:37.226Z,72.39
2022-10-04T11:08:37.549Z,73.98
2022-10-04T11:11:39.449Z,76.25
2022-10-04T11:14:14.756Z,75.11
2022-10-04T11:16:47.857Z,74.47
2022-10-04T11:19:46.495Z,74.88
2022-10-04T11:22:42.357Z,75.56
2022-10-04T11:25:46.873Z,75.34
2022-10-04T11:28:27.904Z,74.87
2022-10-04T11:31:19.532Z,74.10
2022-10-04T11:34:02.508Z,73.96
2022-10-04T11:36:53.971Z,73.17
2022-10-04T11:40:02.142Z,73.21
2022-10-04T11:43:06.178Z,73.53
2022-10-04T11:45:42.948Z,75.65
2022-10-04T11:48:27.880Z,77.09
2022-10-04T11:51:10.322Z,77.58
2022-10-04T11:54:07.485Z,76.06
2022-10-04T11:56:49.169Z,76.22
2022-10-04T11:59:32.941Z,77.35
2022-10-04T12:02:17.552Z,77.14
2022-10-04T12:05:18.604Z,78.00
2022-10-04T12:07:54.463Z,76.87
2022-10-04T12:10:29.771Z,75.58
2022-10-04T12:13:19.955Z,77.16
2022-10-04T12:16:01.253Z,75.64
2022-10-04T12:18:34.409Z,74.43
2022-10-04T12:21:19.884Z,75.61
2022-10-04T12:24:09.088Z,73.76
2022-10-04T12:26:38.572Z,73.56
2022-10-04T12:29:24.201Z,72.72
2022-10-04T12:32:00.056Z,71.35
2022-10-04T12:34:40.281Z,72.00
2022-10-04T12:37:19.341Z,73.18
2022-10-04T12:40:14.435Z,72.11
2022-10-04T12:42:59.660Z,71.63
2022-10-04T12:45:52.766Z,73.06
2022-10-04T12:48:43.593Z,74.69
2022-10-04T12:51:22.830Z,73.35
2022-10-04T12:54:01.275Z,71.21
2022-10-04T12:56:45.687Z,70.81
2022-10-04T12:59:25.670Z,70.76
2022-10-04T13:02:21.721Z,70.27
2022-10-04T13:04:59.338Z,70.96
2022-10-04T13:07:36.039Z,72.73
2022-10-04T13:10:44.319Z,73.81
2022-10-04T13:13:44.753Z,72.51
2022-10-04T13:19:27.279Z,71.90
2022-10-04T13:22:00.085Z,72.12
2022-10-04T13:24:58.052Z,71.36
2022-10-04T13:27:49.171Z,73.36
2022-10-04T13:30:23.501Z,71.68
2022-10-04T13:33:26.483Z,70.00
2022-10-04T13:36:05.329Z,69.54
2022-10-04T13:38:55.305Z,70.79
2022-10-04T13:41:52.516Z,68.38
2022-10-04T13:44:30.494Z,66.34
2022-10-04T13:47:34.285Z,66.73
2022-10-04T13:50:22.245Z,69.50
2022-10-04T13:53:15.478Z,68.84
2022-10-04T13:56:04.735Z,70.17
2022-10-04T13:58:52.660Z,70.43
2022-10-04T14:01:37.826Z,68.73
2022-10-04T14:04:25.693Z,67.18
2022-10-04T14:07:23.314Z,69.29
2022-10-04T14:10:19.975Z,67.75
2022-10-04T14:12:49.243Z,68.88
2022-10-04T14:15:50.585Z,65.91
2022-10-04T14:18:46.448Z,63.01
2022-10-04T14:21:26.439Z,63.02
2022-10-04T14:24:32.739Z,62.81
2022-10-04T14:27:05.188Z,63.64
2022-10-04T14:30:00.783Z,64.05
2022-10-04T14:32:45.888Z,66.04
2022-10-04T14:35:29.008Z,64.26
2022-10-04T14:38:23.186Z,65.37
2022-10-04T14:41:35.220Z,66.59
2022-10-04T14:44:31.416Z,66.43
2022-10-04T14:47:36.771Z,68.20
2022-10-04T14:50:26.769Z,67.27
2022-10-04T14:53:02.470Z,68.00
2022-10-04T14:55:49.110Z,67.66
2022-10-04T14:58:32.341Z,68.86
2022-10-04T15:01:01.629Z,68.09
2022-10-04T15:03:38.973Z,68.14
2022-10-04T15:06:12.238Z,68.51
2022-10-04T15:09:16.102Z,68.37
2022-10-04T15:12:21.491Z,69.63
2022-10-04T15:14:59.428Z,68.88
2022-10-04T15:17:29.597Z,69.41
2022-10-04T15:20:06.385Z,72.19
2022-10-04T15:22:46.746Z,73.28
2022-10-04T15:25:40.545Z,71.69
2022-10-04T15:28:44.784Z,72.59
2022-10-04T15:31:17.240Z,72.71
2022-10-04T15:34:14.863Z,72.54
2022-10-04T15:37:03.836Z,72.59
2022-10-04T15:39:58.826Z,73.94
2022-10-04T15:42:37.293Z,74.11
2022-10-04T15:45:17.135Z,73.17
2022-10-04T15:48:14.647Z,74.09
2022-10-04T15:51:08.267Z,74.50
2022-10-04T15:54:08.627Z,74.34
2022-10-04T15:56:41.192Z,73.52
2022-10-04T15:59:36.469Z,73.02
2022-10-04T16:02:36.624Z,73.56
2022-10-04T16:05:15.276Z,73.50
2022-10-04T16:08:09.429Z,73.52
2022-10-04T16:11:14.739Z,73.60
2022-10-04T16:14:20.034Z,74.61
2022-10-04T16:16:59.460Z,74.87
2022-10-04T16:19:53.184Z,74.54
2022-10-04T16:22:38.376Z,76.17
2022-10-04T16:25:23.640Z,77.22
2022-10-04T16:27:56.171Z,76.85
2022-10-04T16:30:45.912Z,79.51
2022-10-04T16:33:32.334Z,79.10
2022-10-04T16:36:18.239Z,79.55
2022-10-04T16:39:22.979Z,80.53
2022-10-04T16:42:01.295Z,81.89
2022-10-04T16:44:50.589Z,81.45
2022-10-04T16:47:33.399Z,80.61
2022-10-04T16:50:04.751Z,80.58
2022-10-04T16:53:02.533Z,81.13
2022-10-04T16:55:53.697Z,81.16
2022-10-04T16:58:26.156Z,81.33
2022-10-04T17:01:26.117Z,80.64
2022-10-04T17:04:05.052Z,80.61
2022-10-04T17:06:33.077Z,80.77
2022-10-04T17:09:02.404Z,81.91
2022-10-04T17:11:44.797Z,82.20
2022-10-04T17:14:49.162Z,82.37
2022-10-04T17:17:42.597Z,82.59
2022-10-04T17:20:26.713Z,82.13
2022-10-04T17:23:24.012Z,81.82
2022-10-04T17:26:08.889Z,81.28
2022-10-04T17:28:53.054Z,81.70
2022-10-04T17:31:38.363Z,83.18
2022-10-04T17:34:10.619Z,82.69
2022-10-04T17:36:47.955Z,82.05
2022-10-04T17:39:23.328Z,82.40
2022-10-04T17:42:10.504Z,81.32
2022-10-04T17:45:11.688Z,81.16
2022-10-04T17:47:59.894Z,81.16
2022-10-04T17:51:11.736Z,80.94
2022-10-04T17:54:00.832Z,81.38
2022-10-04T17:57:12.126Z,81.92
2022-10-04T17:59:44.023Z,82.03
2022-10-04T18:02:20.230Z,81.28
2022-10-04T18:05:17.794Z,82.14
2022-10-04T18:07:52.815Z,81.81
2022-10-04T18:10:40.959Z,82.10
2022-10-04T18:13:19.633Z,82.33
2022-10-04T18:15:59.760Z,81.91
2022-10-04T18:18:37.176Z,81.86
2022-10-04T18:21:27.409Z,82.07
2022-10-04T18:24:17.281Z,83.16
2022-10-04T18:27:16.630Z,82.05
2022-10-04T18:29:58.221Z,81.59
2022-10-04T18:32:30.668Z,82.61
2022-10-04T18:35:27.589Z,82.26
2022-10-04T18:38:09.188Z,83.04
2022-10-04T18:40:43.128Z,82.46
2022-10-04T18:43:34.807Z,81.27
2022-10-04T18:46:16.063Z,80.86
2022-10-04T18:48:56.372Z,81.89
2022-10-04T18:51:30.759Z,82.23
2022-10-04T18:54:29.333Z,83.18
2022-10-04T18:57:23.316Z,82.98
2022-10-04T19:00:20.342Z,86.12
2022-10-04T19:02:57.725Z,86.29
2022-10-04T19:05:40.272Z,85.57
2022-10-04T19:08:35.871Z,85.91
2022-10-04T19:11:16.035Z,86.11
2022-10-04T19:14:14.483Z,86.87
2022-10-04T19:16:58.780Z,87.24
2022-10-04T19:19:53.986Z,87.32
2022-10-04T19:22:42.009Z,87.22
2022-10-04T19:25:27.348Z,86.74
2022-10-04T19:28:11.139Z,86.87
2022-10-04T19:31:05.152Z,85.87
2022-10-04T19:33:41.106Z,85.33
2022-10-04T19:36:25.133Z,86.28
2022-10-04T19:39:31.055Z,85.65
2022-10-04T19:42:01.793Z,86.09
2022-10-04T19:45:08.329Z,85.02
2022-10-04T19:47:53.046Z,84.86
2022-10-04T19:50:28.055Z,84.77
2022-10-04T19:53:07.373Z,84.43
2022-10-04T19:55:51.437Z,83.76
2022-10-04T19:58:40.888Z,84.08
2022-10-04T20:01:23.168Z,83.18
2022-10-04T20:04:11.614Z,82.87
2022-10-04T20:06:40.726Z,82.77
2022-10-04T20:09:41.246Z,82.92
2022-10-04T20:12:31.712Z,81.72
2022-10-04T20:15:16.736Z,81.96
2022-10-04T20:17:45.647Z,80.71
2022-10-04T20:20:38.471Z,80.08
2022-10-04T20:23:07.578Z,80.57
2022-10-04T20:25:43.290Z,80.30
2022-10-04T20:28:11.031Z,79.35
2022-10-04T20:31:01.005Z,79.74
2022-10-04T20:33:37.184Z,80.19
2022-10-04T20:36:32.537Z,79.78
2022-10-04T20:39:03.620Z,79.91
2022-10-04T20:41:30.245Z,79.98
2022-10-04T20:44:01.228Z,80.08
2022-10-04T20:46:38.783Z,79.90
2022-10-04T20:49:15.747Z,79.69
2022-10-04T20:51:49.740Z,79.09
2022-10-04T20:54:20.919Z,79.50
2022-10-04T20:56:49.308Z,80.18
2022-10-04T20:59:17.788Z,79.55
2022-10-04T21:02:01.197Z,80.16
2022-10-04T21:04:49.934Z,80.24
2022-10-04T21:07:21.639Z,80.24
2022-10-04T21:09:48.823Z,79.66
2022-10-04T21:12:31.881Z,79.78
2022-10-04T21:15:25.008Z,79.57
2022-10-04T21:18:10.963Z,81.48
2022-10-04T21:20:52.034Z,80.98
2022-10-04T21:23:36.764Z,80.85
2022-10-04T21:26:56.980Z,79.31
2022-10-04T21:29:24.464Z,78.98
2022-10-04T21:31:51.116Z,79.60
2022-10-04T21:34:34.793Z,78.99
2022-10-04T21:37:04.307Z,79.88
2022-10-04T21:39:38.465Z,80.69
2022-10-04T21:42:05.531Z,80.97
2022-10-04T21:44:32.069Z,81.19
2022-10-04T21:46:58.693Z,81.71
2022-10-04T21:49:25.307Z,81.90
2022-10-04T21:51:51.835Z,81.95
2022-10-04T21:54:18.454Z,81.78
2022-10-04T21:56:45.423Z,82.63
2022-10-04T21:59:12.370Z,83.16
2022-10-04T22:01:38.907Z,82.76
2022-10-04T22:04:05.490Z,83.61
2022-10-04T22:06:32.077Z,83.85
2022-10-04T22:08:58.610Z,83.54
2022-10-04T22:11:25.391Z,83.38
2022-10-04T22:13:52.009Z,83.65
2022-10-04T22:16:18.605Z,83.89
2022-10-04T22:18:45.245Z,82.88
2022-10-04T22:21:11.790Z,83.30
2022-10-04T22:23:40.992Z,82.68
2022-10-04T22:26:19.927Z,82.39
2022-10-04T22:28:49.509Z,82.42
2022-10-04T22:31:18.765Z,82.20
2022-10-04T22:33:47.482Z,80.64
2022-10-04T22:36:39.559Z,79.81
2022-10-04T22:39:09.062Z,79.50
2022-10-04T22:41:47.237Z,79.40
2022-10-04T22:44:37.450Z,78.66
2022-10-04T22:47:10.201Z,78.58
2022-10-04T22:49:40.122Z,79.19
2022-10-04T22:52:14.963Z,79.43
2022-10-04T22:54:45.135Z,79.07
2022-10-04T22:57:14.300Z,78.42
2022-10-04T22:59:44.406Z,78.52
2022-10-04T23:02:17.438Z,78.30
2022-10-04T23:04:52.327Z,78.42
2022-10-04T23:07:19.927Z,78.42
2022-10-04T23:09:46.934Z,78.55
2022-10-04T23:12:14.091Z,77.84
2022-10-04T23:14:40.982Z,78.61
2022-10-04T23:17:22.787Z,80.61
2022-10-04T23:19:56.520Z,81.76
2022-10-04T23:22:27.711Z,81.03
2022-10-04T23:24:55.746Z,80.30
2022-10-04T23:27:23.442Z,80.32
2022-10-04T23:30:02.901Z,80.23
2022-10-04T23:32:31.321Z,81.00
2022-10-04T23:34:59.013Z,80.78
2022-10-04T23:37:29.280Z,80.31
2022-10-04T23:39:55.965Z,80.54
2022-10-04T23:42:32.267Z,79.94
2022-10-04T23:45:00.066Z,78.52
2022-10-04T23:47:34.711Z,80.05
2022-10-04T23:50:02.023Z,81.01
2022-10-04T23:52:37.137Z,80.39
2022-10-04T23:55:21.361Z,81.76
2022-10-04T23:57:48.709Z,81.02
